Time;durP1;ratioP1;P1;durP2;ratioP2;P2;SDS_P1;SDS_P2;PMS_P1;PMS_P2;Temp;Humidity;BMP_temperature;BMP_pressure;BME280_temperature;BME280_humidity;BME280_pressure;Samples;Min_cycle;Max_cycle;Signal;HPM_P1;HPM_P2
2021/11/14 00:00:02;;;;;;;;;;;8.00;99.90;;;6.93;100.00;95558.66;10447908;28;2010;-78
2021/11/14 00:05:05;;;;;;;;;;;8.00;99.90;;;6.95;100.00;95554.69;10448723;28;1941;-78
2021/11/14 00:10:10;;;;;;;;;;;8.00;99.90;;;6.92;100.00;95557.06;10450461;28;1902;-79
2021/11/14 00:15:13;;;;;;;;;;;8.00;99.90;;;6.99;100.00;95550.44;10464649;28;2000;-79
2021/11/14 00:20:16;;;;;;;;;;;8.00;99.90;;;7.03;100.00;95559.56;10473279;28;2243;-79
2021/11/14 00:25:19;;;;;;;;;;;8.10;99.90;;;7.03;100.00;95553.41;10471626;28;1932;-79
2021/11/14 00:30:24;;;;;;;;;;;8.10;99.90;;;7.02;100.00;95552.59;10466455;28;1998;-78
2021/11/14 00:35:27;;;;;;;;;;;8.10;99.90;;;6.98;100.00;95548.81;10456211;28;1733;-78
2021/11/14 00:40:30;;;;;;;;;;;8.10;99.90;;;7.00;100.00;95545.91;10458537;28;1869;-78
2021/11/14 00:45:33;;;;;;;;;;;8.10;99.90;;;7.08;100.00;95549.97;10464366;28;1917;-79
2021/11/14 00:50:38;;;;;;;;;;;8.10;99.90;;;7.04;100.00;95555.00;10460873;28;1973;-79
2021/11/14 00:55:41;;;;;;;;;;;8.10;99.90;;;7.09;100.00;95559.59;10454945;28;1877;-79
2021/11/14 01:00:44;;;;;;;;;;;8.10;99.90;;;6.99;100.00;95565.66;10454589;28;1995;-79
2021/11/14 01:05:47;;;;;;;;;;;8.10;99.90;;;7.09;100.00;95557.72;10447154;28;2028;-79
2021/11/14 01:10:50;;;;;;;;;;;8.10;99.90;;;7.05;100.00;95569.97;10458760;28;1886;-78
2021/11/14 01:15:53;;;;;;;;;;;8.10;99.90;;;7.08;100.00;95572.16;10455510;28;1885;-78
2021/11/14 01:20:56;;;;;;;;;;;8.10;99.90;;;7.13;100.00;95574.06;10456741;28;1882;-78
2021/11/14 01:25:59;;;;;;;;;;;8.10;99.90;;;7.20;100.00;95574.66;10451985;28;1994;-78
2021/11/14 01:31:02;;;;;;;;;;;8.20;99.90;;;7.13;100.00;95574.06;10450846;28;1866;-78
2021/11/14 01:36:05;;;;;;;;;;;8.30;99.90;;;7.08;100.00;95576.69;10440962;28;1849;-78
2021/11/14 01:41:08;;;;;;;;;;;8.20;99.90;;;7.12;100.00;95577.78;10446268;28;2005;-78
2021/11/14 01:46:11;;;;;;;;;;;8.20;99.90;;;7.23;100.00;95574.94;10450091;28;2059;-78
2021/11/14 01:51:14;;;;;;;;;;;8.20;99.90;;;7.22;100.00;95567.97;10447328;28;2021;-78
2021/11/14 01:56:16;;;;;;;;;;;8.30;99.90;;;7.28;100.00;95568.81;10449678;28;1810;-78
2021/11/14 02:01:19;;;;;;;;;;;8.30;99.90;;;7.29;100.00;95565.06;10439527;28;1906;-78
2021/11/14 02:06:23;;;;;;;;;;;8.30;99.90;;;7.24;100.00;95560.50;10444869;28;2012;-77
2021/11/14 02:11:26;;;;;;;;;;;8.30;99.90;;;7.19;100.00;95563.16;10441171;28;1834;-78
2021/11/14 02:16:29;;;;;;;;;;;8.30;99.90;;;7.16;100.00;95562.84;10451011;28;1902;-77
2021/11/14 02:21:51;;;;;;;;;;;8.30;99.90;;;7.21;100.00;95554.88;10452567;28;1866;-77
2021/11/14 02:26:54;;;;;;;;;;;8.20;99.90;;;7.20;100.00;95558.63;10450414;28;1921;-78
2021/11/14 02:31:57;;;;;;;;;;;8.20;99.90;;;7.20;100.00;95553.25;10450421;28;1890;-78
2021/11/14 02:37:19;;;;;;;;;;;8.20;99.90;;;7.15;100.00;95553.22;10457120;28;1831;-77
2021/11/14 02:42:22;;;;;;;;;;;8.30;99.90;;;7.14;100.00;95554.28;10465325;28;1976;-79
2021/11/14 02:47:25;;;;;;;;;;;8.20;99.90;;;7.15;100.00;95556.69;10465091;28;1914;-78
2021/11/14 02:52:28;;;;;;;;;;;8.20;99.90;;;6.92;100.00;95563.19;10499700;28;1739;-78
2021/11/14 02:57:31;;;;;;;;;;;8.10;99.90;;;6.69;100.00;95569.72;10506004;28;1818;-78
2021/11/14 03:02:34;;;;;;;;;;;8.00;99.90;;;6.67;100.00;95577.16;10515531;28;1775;-77
2021/11/14 03:07:37;;;;;;;;;;;7.90;99.90;;;6.64;100.00;95567.00;10525812;28;1949;-79
2021/11/14 03:12:40;;;;;;;;;;;7.80;99.90;;;6.64;100.00;95571.53;10504646;28;1829;-78
2021/11/14 03:17:43;;;;;;;;;;;7.80;99.90;;;6.46;100.00;95570.00;10513925;28;1542;-78
2021/11/14 03:22:46;;;;;;;;;;;7.70;99.90;;;6.44;100.00;95569.47;10532521;28;1664;-78
2021/11/14 03:27:49;;;;;;;;;;;7.60;99.90;;;6.47;100.00;95567.09;10517101;28;1967;-77
2021/11/14 03:32:52;;;;;;;;;;;7.60;99.90;;;6.49;100.00;95573.00;10480490;28;1921;-78
2021/11/14 03:37:54;;;;;;;;;;;7.60;99.90;;;6.57;100.00;95576.28;10469459;28;1915;-78
2021/11/14 03:42:57;;;;;;;;;;;7.60;99.90;;;6.71;100.00;95572.13;10458512;28;2062;-78
2021/11/14 03:48:00;;;;;;;;;;;7.70;99.90;;;6.68;100.00;95572.59;10459966;28;1997;-78
2021/11/14 03:53:03;;;;;;;;;;;7.70;99.90;;;6.70;100.00;95570.50;10453192;28;1880;-78
2021/11/14 03:58:06;;;;;;;;;;;7.80;99.90;;;6.68;100.00;95577.94;10461935;28;1924;-78
2021/11/14 04:03:09;;;;;;;;;;;7.70;99.90;;;6.55;100.00;95565.00;10451084;28;1873;-78
2021/11/14 04:08:12;;;;;;;;;;;7.70;99.90;;;6.50;100.00;95576.47;10462354;28;1917;-78
2021/11/14 04:13:15;;;;;;;;;;;7.70;99.90;;;6.53;100.00;95580.50;10461334;28;1866;-78
2021/11/14 04:18:38;;;;;;;;;;;7.70;99.90;;;6.56;100.00;95580.81;10453686;28;1784;-78
2021/11/14 04:23:41;;;;;;;;;;;7.70;99.90;;;6.59;100.00;95577.63;10456710;28;1898;-78
2021/11/14 04:28:44;;;;;;;;;;;7.70;99.90;;;6.56;100.00;95582.69;10448616;28;1892;-78
2021/11/14 04:33:47;;;;;;;;;;;7.70;99.90;;;6.45;100.00;95579.91;10459412;28;2031;-77
2021/11/14 04:38:50;;;;;;;;;;;7.70;99.90;;;6.37;100.00;95577.69;10455042;28;1944;-77
2021/11/14 04:43:53;;;;;;;;;;;7.60;99.90;;;6.40;100.00;95587.03;10451219;28;1928;-78
2021/11/14 04:48:56;;;;;;;;;;;7.60;99.90;;;6.40;100.00;95590.50;10447332;28;1961;-78
2021/11/14 04:53:59;;;;;;;;;;;7.60;99.90;;;6.38;100.00;95589.16;10448365;28;2042;-78
2021/11/14 04:59:02;;;;;;;;;;;7.50;99.90;;;6.37;100.00;95588.38;10448355;28;1887;-78
2021/11/14 05:04:05;;;;;;;;;;;7.60;99.90;;;6.39;100.00;95594.25;10445717;28;1932;-77
2021/11/14 05:09:08;;;;;;;;;;;7.60;99.90;;;6.34;100.00;95588.84;10459001;28;1813;-77
2021/11/14 05:14:11;;;;;;;;;;;7.50;99.90;;;6.40;100.00;95587.84;10449454;28;1845;-78
2021/11/14 05:19:15;;;;;;;;;;;7.50;99.90;;;6.39;100.00;95596.13;10444504;28;2030;-78
2021/11/14 05:24:18;;;;;;;;;;;7.60;99.90;;;6.40;100.00;95598.53;10453892;28;1993;-78
2021/11/14 05:29:21;;;;;;;;;;;7.60;99.90;;;6.46;100.00;95605.53;10453548;28;1965;-77
2021/11/14 05:34:24;;;;;;;;;;;7.60;99.90;;;6.38;100.00;95610.53;10431637;28;1913;-77
2021/11/14 05:39:26;;;;;;;;;;;7.60;99.90;;;6.18;100.00;95611.09;10438351;28;1935;-77
2021/11/14 05:44:29;;;;;;;;;;;7.50;99.90;;;6.19;100.00;95612.72;10439390;28;1981;-77
2021/11/14 05:49:32;;;;;;;;;;;7.40;99.90;;;6.11;100.00;95621.97;10440180;28;1857;-78
2021/11/14 05:54:35;;;;;;;;;;;7.40;99.90;;;6.02;100.00;95627.97;10439340;28;1989;-78
2021/11/14 05:59:45;;;;;;;;;;;7.20;99.90;;;5.91;100.00;95629.69;10433625;28;1842;-78
2021/11/14 06:04:55;;;;;;;;;;;7.10;99.90;;;5.89;100.00;95635.25;10433809;28;1967;-78
2021/11/14 06:10:00;;;;;;;;;;;7.10;99.90;;;5.88;100.00;95638.19;10446873;28;1866;-77
2021/11/14 06:15:03;;;;;;;;;;;7.10;99.90;;;5.98;100.00;95649.03;10451834;28;1925;-78
2021/11/14 06:20:06;;;;;;;;;;;7.10;99.90;;;5.91;100.00;95643.84;10448906;28;1924;-77
2021/11/14 06:25:09;;;;;;;;;;;7.10;99.90;;;5.89;100.00;95667.28;10448303;28;1960;-78
2021/11/14 06:30:12;;;;;;;;;;;7.10;99.90;;;5.85;100.00;95681.34;10449575;28;1858;-77
2021/11/14 06:35:15;;;;;;;;;;;7.00;99.90;;;5.69;100.00;95677.66;10453491;28;1832;-77
2021/11/14 06:40:18;;;;;;;;;;;7.00;99.90;;;5.70;100.00;95682.75;10448986;28;1869;-78
2021/11/14 06:45:21;;;;;;;;;;;6.90;99.90;;;5.61;100.00;95691.44;10438838;28;2298;-77
2021/11/14 06:50:24;;;;;;;;;;;6.80;99.90;;;5.69;100.00;95688.34;10450190;28;1885;-78
2021/11/14 06:55:26;;;;;;;;;;;6.80;99.90;;;5.62;100.00;95693.03;10448994;28;1941;-78
2021/11/14 07:00:29;;;;;;;;;;;6.80;99.90;;;5.69;100.00;95689.16;10450863;28;1988;-79
2021/11/14 07:05:33;;;;;;;;;;;6.70;99.90;;;5.73;100.00;95694.00;10442331;28;1913;-79
2021/11/14 07:10:35;;;;;;;;;;;6.80;99.90;;;5.71;100.00;95699.56;10450885;28;1850;-79
2021/11/14 07:15:38;;;;;;;;;;;6.80;99.90;;;5.79;100.00;95704.50;10448935;28;1829;-78
2021/11/14 07:20:41;;;;;;;;;;;6.90;99.90;;;5.86;100.00;95707.78;10441644;28;1957;-79
2021/11/14 07:25:44;;;;;;;;;;;7.00;99.90;;;5.87;100.00;95711.28;10450004;28;1983;-79
2021/11/14 07:30:47;;;;;;;;;;;7.00;99.90;;;5.76;100.00;95720.16;10447988;28;1589;-79
2021/11/14 07:35:50;;;;;;;;;;;6.90;99.90;;;5.59;100.00;95720.97;10446837;28;1948;-78
2021/11/14 07:40:53;;;;;;;;;;;6.80;99.90;;;5.53;100.00;95713.16;10448390;28;1896;-79
2021/11/14 07:45:56;;;;;;;;;;;6.70;99.90;;;5.53;100.00;95715.81;10451848;28;1902;-77
2021/11/14 07:50:59;;;;;;;;;;;6.70;99.90;;;5.72;100.00;95714.50;10454037;28;2105;-77
2021/11/14 07:56:02;;;;;;;;;;;6.80;99.90;;;5.61;100.00;95715.44;10448686;28;2000;-78
2021/11/14 08:01:05;;;;;;;;;;;6.80;99.90;;;5.64;100.00;95720.25;10443407;28;1880;-78
2021/11/14 08:06:08;;;;;;;;;;;6.80;99.90;;;5.69;100.00;95717.69;10450124;28;1979;-78
2021/11/14 08:11:11;;;;;;;;;;;6.90;99.90;;;5.89;100.00;95712.63;10448781;28;1951;-79
2021/11/14 08:16:14;;;;;;;;;;;7.00;99.90;;;6.14;100.00;95711.41;10453578;28;1918;-79
2021/11/14 08:21:17;;;;;;;;;;;7.10;99.90;;;5.78;100.00;95723.41;10448397;28;1909;-79
2021/11/14 08:26:20;;;;;;;;;;;7.00;99.90;;;5.66;100.00;95715.47;10450414;28;2098;-78
2021/11/14 08:31:23;;;;;;;;;;;6.90;99.90;;;5.61;100.00;95712.75;10443767;28;1963;-78
2021/11/14 08:36:27;;;;;;;;;;;6.80;99.90;;;5.48;100.00;95726.41;10455144;28;1787;-79
2021/11/14 08:41:30;;;;;;;;;;;6.70;99.90;;;5.82;100.00;95714.66;10452615;28;1830;-77
2021/11/14 08:46:33;;;;;;;;;;;6.80;99.90;;;5.95;100.00;95717.03;10455425;28;1934;-77
2021/11/14 08:51:36;;;;;;;;;;;6.90;99.90;;;6.03;100.00;95715.78;10447687;28;1937;-77
2021/11/14 08:56:39;;;;;;;;;;;7.00;99.90;;;6.24;100.00;95719.56;10453696;28;1944;-78
2021/11/14 09:01:42;;;;;;;;;;;7.20;99.90;;;6.12;100.00;95719.66;10464751;28;1811;-79
2021/11/14 09:06:45;;;;;;;;;;;7.30;99.90;;;6.29;100.00;95719.59;10463149;28;1975;-78
2021/11/14 09:11:48;;;;;;;;;;;7.40;99.90;;;6.41;100.00;95727.50;10474124;28;1941;-78
2021/11/14 09:16:51;;;;;;;;;;;7.40;99.90;;;6.44;100.00;95733.16;10461996;28;1871;-78
2021/11/14 09:21:54;;;;;;;;;;;7.50;99.90;;;6.42;100.00;95732.56;10472194;28;2003;-78
2021/11/14 09:26:57;;;;;;;;;;;7.50;99.90;;;6.11;100.00;95739.41;10471888;28;2345;-78
2021/11/14 09:32:00;;;;;;;;;;;7.40;99.90;;;6.32;100.00;95745.81;10466028;28;1879;-78
2021/11/14 09:37:03;;;;;;;;;;;7.30;99.90;;;6.46;100.00;95746.25;10454028;28;1944;-79
2021/11/14 09:42:06;;;;;;;;;;;7.50;99.90;;;6.49;100.00;95743.09;10460442;28;1811;-78
2021/11/14 09:47:09;;;;;;;;;;;7.50;99.90;;;6.86;100.00;95743.25;10470333;28;1985;-78
2021/11/14 09:52:12;;;;;;;;;;;7.70;99.90;;;6.91;100.00;95734.47;10469685;28;1880;-78
2021/11/14 09:57:15;;;;;;;;;;;7.80;99.90;;;6.96;100.00;95745.22;10464373;28;1948;-77
2021/11/14 10:02:18;;;;;;;;;;;8.00;99.90;;;7.08;100.00;95737.06;10469444;28;1953;-77
2021/11/14 10:07:22;;;;;;;;;;;8.00;99.90;;;6.83;100.00;95735.75;10450040;28;1917;-79
2021/11/14 10:12:25;;;;;;;;;;;8.00;99.90;;;6.70;100.00;95733.47;10455810;28;2094;-79
2021/11/14 10:17:28;;;;;;;;;;;8.00;99.90;;;6.30;100.00;95721.22;10457086;28;1933;-77
2021/11/14 10:22:31;;;;;;;;;;;7.60;99.90;;;6.41;100.00;95725.63;10450275;28;2069;-77
2021/11/14 10:27:34;;;;;;;;;;;7.50;99.90;;;6.54;100.00;95728.97;10448483;28;2041;-77
2021/11/14 10:32:36;;;;;;;;;;;7.60;99.90;;;6.79;100.00;95731.94;10449436;28;1925;-77
2021/11/14 10:37:43;;;;;;;;;;;7.70;99.90;;;6.71;100.00;95733.19;10461400;28;1926;-76
2021/11/14 10:42:46;;;;;;;;;;;7.80;99.90;;;6.33;100.00;95731.41;10458620;28;1901;-76
2021/11/14 10:47:49;;;;;;;;;;;7.60;99.90;;;6.34;100.00;95725.00;10452805;28;1982;-77
2021/11/14 10:52:52;;;;;;;;;;;7.50;99.90;;;6.20;100.00;95726.44;10451043;28;2183;-77
2021/11/14 10:57:55;;;;;;;;;;;7.40;99.90;;;6.33;100.00;95720.72;10458697;28;1935;-76
2021/11/14 11:02:59;;;;;;;;;;;7.40;99.90;;;6.32;100.00;95712.97;10454004;28;2067;-77
2021/11/14 11:08:02;;;;;;;;;;;7.40;99.90;;;6.07;100.00;95732.94;10441484;28;1916;-76
2021/11/14 11:13:05;;;;;;;;;;;7.30;99.90;;;6.20;100.00;95729.91;10440921;28;1970;-76
2021/11/14 11:18:08;;;;;;;;;;;7.30;99.90;;;6.32;100.00;95729.00;10452666;28;1953;-77
2021/11/14 11:23:11;;;;;;;;;;;7.30;99.90;;;6.31;100.00;95725.50;10454836;28;1998;-77
2021/11/14 11:28:14;;;;;;;;;;;7.40;99.90;;;6.29;100.00;95724.13;10449364;28;2326;-76
2021/11/14 11:33:17;;;;;;;;;;;7.40;99.90;;;6.43;100.00;95731.53;10449177;28;2207;-76
2021/11/14 11:38:21;;;;;;;;;;;7.40;99.90;;;6.27;100.00;95731.59;10455760;28;1861;-77
2021/11/14 11:43:31;;;;;;;;;;;7.40;99.90;;;6.12;100.00;95742.88;10446244;28;1974;-76
2021/11/14 11:48:36;;;;;;;;;;;7.30;99.90;;;6.12;100.00;95749.03;10437061;28;2070;-76
2021/11/14 11:53:39;;;;;;;;;;;7.30;99.90;;;5.96;100.00;95731.97;10449321;28;1443;-77
2021/11/14 11:58:42;;;;;;;;;;;7.10;99.90;;;6.07;100.00;95746.28;10454069;28;1873;-77
2021/11/14 12:03:45;;;;;;;;;;;7.10;99.90;;;6.15;100.00;95742.38;10456616;28;1944;-77
2021/11/14 12:08:48;;;;;;;;;;;7.10;99.90;;;6.42;100.00;95740.59;10447468;28;1906;-77
2021/11/14 12:13:55;;;;;;;;;;;7.30;99.90;;;6.50;100.00;95748.19;10432727;28;1928;-78
2021/11/14 12:18:58;;;;;;;;;;;7.40;99.90;;;6.31;100.00;95746.06;10438376;28;1983;-77
2021/11/14 12:24:02;;;;;;;;;;;7.40;99.90;;;6.23;100.00;95740.09;10453039;28;1983;-76
2021/11/14 12:29:10;;;;;;;;;;;7.40;99.90;;;6.23;100.00;95752.63;10465949;28;1960;-76
2021/11/14 12:34:13;;;;;;;;;;;7.40;99.90;;;6.29;100.00;95751.63;10424963;28;2185;-76
2021/11/14 12:39:16;;;;;;;;;;;7.40;99.90;;;6.24;100.00;95756.94;10458976;28;1923;-76
2021/11/14 12:44:19;;;;;;;;;;;7.30;99.90;;;6.04;100.00;95749.41;10456034;28;1931;-77
2021/11/14 12:49:22;;;;;;;;;;;7.30;99.90;;;6.06;100.00;95752.66;10451002;28;1985;-76
2021/11/14 12:54:26;;;;;;;;;;;7.10;99.90;;;6.08;100.00;95753.22;10454475;28;1933;-75
2021/11/14 12:59:29;;;;;;;;;;;7.20;99.90;;;6.23;100.00;95753.44;10447822;28;1899;-76
2021/11/14 13:04:33;;;;;;;;;;;7.20;99.90;;;6.23;100.00;95760.63;10438339;28;1925;-77
2021/11/14 13:09:38;;;;;;;;;;;7.30;99.90;;;6.17;100.00;95756.25;10457624;28;1944;-76
2021/11/14 13:14:41;;;;;;;;;;;7.30;99.90;;;6.19;100.00;95756.84;10452044;28;1889;-75
2021/11/14 13:19:44;;;;;;;;;;;7.20;99.90;;;6.24;100.00;95762.25;10445451;28;2024;-76
2021/11/14 13:24:49;;;;;;;;;;;7.30;99.90;;;6.23;100.00;95763.28;10459732;28;1960;-76
2021/11/14 13:29:52;;;;;;;;;;;7.30;99.90;;;6.16;100.00;95762.66;10458214;28;2271;-77
2021/11/14 13:34:55;;;;;;;;;;;7.30;99.90;;;6.18;100.00;95761.38;10454353;28;1970;-76
2021/11/14 13:40:00;;;;;;;;;;;7.30;99.90;;;6.22;100.00;95767.81;10458888;28;1948;-76
2021/11/14 13:45:03;;;;;;;;;;;7.30;99.90;;;6.30;100.00;95771.97;10452920;28;2234;-76
2021/11/14 13:50:06;;;;;;;;;;;7.40;99.90;;;6.36;100.00;95773.63;10461056;28;1979;-76
2021/11/14 13:55:09;;;;;;;;;;;7.40;99.90;;;6.38;100.00;95768.84;10454343;28;1950;-76
2021/11/14 14:00:12;;;;;;;;;;;7.50;99.90;;;6.34;100.00;95772.25;10449485;28;2069;-76
2021/11/14 14:05:14;;;;;;;;;;;7.50;99.90;;;6.34;100.00;95770.38;10441696;28;1970;-76
2021/11/14 14:10:17;;;;;;;;;;;7.40;99.90;;;6.41;100.00;95776.34;10440067;28;1996;-75
2021/11/14 14:15:20;;;;;;;;;;;7.50;99.90;;;6.38;100.00;95779.53;10439279;28;1989;-77
2021/11/14 14:20:24;;;;;;;;;;;7.60;99.90;;;6.40;100.00;95780.09;10434719;28;2224;-75
2021/11/14 14:25:26;;;;;;;;;;;7.50;99.90;;;6.44;100.00;95781.22;10438274;28;2258;-75
2021/11/14 14:30:29;;;;;;;;;;;7.60;99.90;;;6.58;100.00;95773.66;10437072;28;2017;-76
2021/11/14 14:35:32;;;;;;;;;;;7.60;99.90;;;6.40;100.00;95782.75;10443260;28;2054;-76
2021/11/14 14:40:35;;;;;;;;;;;7.60;99.90;;;6.37;100.00;95777.91;10442866;28;1960;-75
2021/11/14 14:45:38;;;;;;;;;;;7.50;99.90;;;6.33;100.00;95787.47;10439633;28;1936;-75
2021/11/14 14:50:41;;;;;;;;;;;7.50;99.90;;;6.38;100.00;95790.22;10446209;28;1944;-77
2021/11/14 14:55:44;;;;;;;;;;;7.50;99.90;;;6.35;100.00;95795.22;10439456;28;2312;-74
2021/11/14 15:00:46;;;;;;;;;;;7.50;99.90;;;6.37;100.00;95791.28;10441753;28;1942;-75
2021/11/14 15:05:50;;;;;;;;;;;7.50;99.90;;;6.32;100.00;95788.53;10449311;28;1864;-73
2021/11/14 15:10:53;;;;;;;;;;;7.50;99.90;;;6.39;100.00;95793.69;10443131;28;2073;-74
2021/11/14 15:15:56;;;;;;;;;;;7.50;99.90;;;6.26;100.00;95800.19;10454315;28;1980;-74
2021/11/14 15:20:58;;;;;;;;;;;7.40;99.90;;;6.23;100.00;95812.19;10446901;28;1948;-74
2021/11/14 15:26:01;;;;;;;;;;;7.40;99.90;;;6.31;100.00;95818.16;10448307;28;1988;-74
2021/11/14 15:31:04;;;;;;;;;;;7.40;99.90;;;6.17;100.00;95806.97;10449754;28;1933;-72
2021/11/14 15:36:07;;;;;;;;;;;7.40;99.90;;;6.02;100.00;95815.56;10451786;28;1946;-72
2021/11/14 15:41:10;;;;;;;;;;;7.30;99.90;;;6.02;100.00;95809.44;10448011;28;1912;-72
2021/11/14 15:46:13;;;;;;;;;;;7.20;99.90;;;6.03;100.00;95821.72;10438329;28;1991;-74
2021/11/14 15:51:16;;;;;;;;;;;7.20;99.90;;;6.03;100.00;95829.72;10447005;28;2041;-72
2021/11/14 15:56:18;;;;;;;;;;;7.20;99.90;;;6.00;100.00;95838.22;10439514;28;2231;-73
2021/11/14 16:01:21;;;;;;;;;;;7.20;99.90;;;6.00;100.00;95839.03;10449521;28;2227;-72
2021/11/14 16:06:24;;;;;;;;;;;7.10;99.90;;;6.00;100.00;95848.91;10444553;28;2026;-73
2021/11/14 16:11:27;;;;;;;;;;;7.10;99.90;;;5.97;100.00;95856.31;10439188;28;1944;-72
2021/11/14 16:16:30;;;;;;;;;;;7.10;99.90;;;6.00;100.00;95859.56;10442253;28;1976;-73
2021/11/14 16:21:33;;;;;;;;;;;7.10;99.90;;;5.95;100.00;95860.28;10449884;28;1937;-73
2021/11/14 16:26:36;;;;;;;;;;;7.10;99.90;;;5.90;100.00;95868.97;10450290;28;1968;-72
2021/11/14 16:31:39;;;;;;;;;;;7.10;99.90;;;5.90;100.00;95874.31;10452137;28;1989;-72
2021/11/14 16:36:42;;;;;;;;;;;7.10;99.90;;;5.90;100.00;95887.66;10451195;28;1945;-73
2021/11/14 16:41:45;;;;;;;;;;;7.00;99.90;;;5.85;100.00;95886.75;10457148;28;2006;-72
2021/11/14 16:46:48;;;;;;;;;;;7.00;99.90;;;5.81;100.00;95899.78;10454579;28;1923;-72
2021/11/14 16:51:51;;;;;;;;;;;7.00;99.90;;;5.87;100.00;95898.81;10439664;28;1967;-73
2021/11/14 16:56:53;;;;;;;;;;;7.00;99.90;;;5.89;100.00;95890.56;10440063;28;1889;-73
2021/11/14 17:01:56;;;;;;;;;;;7.00;99.90;;;5.91;100.00;95896.50;10438790;28;1803;-73
2021/11/14 17:06:59;;;;;;;;;;;7.10;99.90;;;5.89;100.00;95899.38;10439321;28;2417;-73
2021/11/14 17:12:02;;;;;;;;;;;7.00;99.90;;;5.85;100.00;95903.59;10449007;28;1972;-74
2021/11/14 17:17:05;;;;;;;;;;;7.00;99.90;;;5.82;100.00;95905.94;10449589;28;1780;-74
2021/11/14 17:22:09;;;;;;;;;;;7.00;99.90;;;5.73;100.00;95918.84;10439863;28;1944;-75
2021/11/14 17:27:12;;;;;;;;;;;6.90;99.90;;;5.73;100.00;95924.19;10439715;28;1935;-74
2021/11/14 17:32:15;;;;;;;;;;;6.90;99.90;;;5.58;100.00;95922.03;10448415;28;1861;-74
2021/11/14 17:37:18;;;;;;;;;;;6.80;99.90;;;5.66;100.00;95939.50;10439661;28;1906;-73
2021/11/14 17:42:21;;;;;;;;;;;6.80;99.90;;;5.71;100.00;95939.59;10440121;28;1873;-75
2021/11/14 17:47:24;;;;;;;;;;;6.80;99.90;;;5.59;100.00;95944.16;10440674;28;1993;-73
2021/11/14 17:52:27;;;;;;;;;;;6.70;99.90;;;5.53;100.00;95937.91;10442441;28;2030;-74
2021/11/14 17:57:31;;;;;;;;;;;6.60;99.90;;;5.43;100.00;95943.88;10447965;28;1882;-74
2021/11/14 18:02:34;;;;;;;;;;;6.50;99.90;;;5.52;100.00;95940.84;10443261;28;1889;-74
2021/11/14 18:07:38;;;;;;;;;;;6.50;99.90;;;5.48;100.00;95953.03;10449981;28;1977;-75
2021/11/14 18:12:40;;;;;;;;;;;6.60;99.90;;;5.41;100.00;95948.66;10451177;28;1924;-73
2021/11/14 18:17:43;;;;;;;;;;;6.50;99.90;;;5.38;100.00;95949.09;10440264;28;2134;-76
2021/11/14 18:22:52;;;;;;;;;;;6.40;99.90;;;5.37;100.00;95946.69;10429622;28;2165;-74
2021/11/14 18:28:17;;;;;;;;;;;6.40;99.90;;;5.31;100.00;95950.28;10442407;28;2157;-73
2021/11/14 18:33:40;;;;;;;;;;;6.40;99.90;;;5.20;100.00;95959.13;10435358;28;2007;-73
2021/11/14 18:39:03;;;;;;;;;;;6.30;99.90;;;5.16;100.00;95956.13;10435103;28;2150;-73
2021/11/14 18:44:26;;;;;;;;;;;6.30;99.90;;;5.15;100.00;95962.47;10444292;28;1949;-73
2021/11/14 18:49:49;;;;;;;;;;;6.20;99.90;;;5.12;100.00;95960.28;10456468;28;2151;-74
2021/11/14 18:54:52;;;;;;;;;;;6.20;99.90;;;5.06;100.00;95971.91;10448331;28;1995;-74
2021/11/14 18:59:55;;;;;;;;;;;6.20;99.90;;;5.07;100.00;95973.50;10446865;28;2244;-74
2021/11/14 19:04:59;;;;;;;;;;;6.20;99.90;;;4.97;100.00;95973.31;10448006;28;1929;-74
2021/11/14 19:10:02;;;;;;;;;;;6.10;99.90;;;4.95;100.00;95976.19;10454032;28;2051;-74
2021/11/14 19:15:05;;;;;;;;;;;6.10;99.90;;;4.71;100.00;95974.56;10452669;28;1861;-72
2021/11/14 19:20:08;;;;;;;;;;;6.00;99.90;;;4.75;100.00;95991.72;10453791;28;1862;-73
2021/11/14 19:25:11;;;;;;;;;;;5.90;99.90;;;4.69;100.00;95998.75;10441096;28;1936;-73
2021/11/14 19:30:14;;;;;;;;;;;5.80;99.90;;;4.68;100.00;96007.81;10439274;28;2000;-74
2021/11/14 19:35:17;;;;;;;;;;;5.80;99.90;;;4.66;100.00;96012.56;10443292;28;2215;-75
2021/11/14 19:40:20;;;;;;;;;;;5.80;99.90;;;4.55;100.00;96018.66;10450099;28;1874;-76
2021/11/14 19:45:23;;;;;;;;;;;5.70;99.90;;;4.61;100.00;96013.22;10442400;28;1865;-72
2021/11/14 19:50:27;;;;;;;;;;;5.80;99.90;;;4.55;100.00;96021.34;10451838;28;2063;-75
2021/11/14 19:55:30;;;;;;;;;;;5.70;99.90;;;4.55;100.00;96029.31;10445313;28;1983;-76
2021/11/14 20:00:33;;;;;;;;;;;5.70;99.90;;;4.52;100.00;96024.47;10459672;28;1811;-74
2021/11/14 20:05:36;;;;;;;;;;;5.70;99.90;;;4.60;100.00;96026.78;10442215;28;1913;-75
2021/11/14 20:10:39;;;;;;;;;;;5.70;99.90;;;4.59;100.00;96025.16;10455020;28;2003;-75
2021/11/14 20:15:42;;;;;;;;;;;5.70;99.90;;;4.57;100.00;96027.22;10449454;28;1909;-74
2021/11/14 20:20:45;;;;;;;;;;;5.70;99.90;;;4.43;100.00;96031.16;10452923;28;1903;-74
2021/11/14 20:25:52;;;;;;;;;;;5.60;99.90;;;4.39;100.00;96030.81;10452361;28;1861;-74
2021/11/14 20:30:56;;;;;;;;;;;5.60;99.90;;;4.47;100.00;96027.00;10451193;28;2027;-74
2021/11/14 20:35:59;;;;;;;;;;;5.60;99.90;;;4.41;100.00;96026.06;10448169;28;2226;-75
2021/11/14 20:41:02;;;;;;;;;;;5.60;99.90;;;4.41;100.00;96028.72;10452910;28;1900;-76
2021/11/14 20:46:05;;;;;;;;;;;5.60;99.90;;;4.40;100.00;96035.09;10450026;28;1989;-75
2021/11/14 20:51:08;;;;;;;;;;;5.50;99.90;;;4.38;100.00;96031.00;10452487;28;1906;-76
2021/11/14 20:56:11;;;;;;;;;;;5.60;99.90;;;4.28;100.00;96039.56;10462941;28;1947;-76
2021/11/14 21:01:14;;;;;;;;;;;5.50;99.90;;;4.39;100.00;96037.94;10462660;28;1928;-76
2021/11/14 21:06:17;;;;;;;;;;;5.50;99.90;;;4.36;100.00;96041.09;10446351;28;1921;-78
2021/11/14 21:11:20;;;;;;;;;;;5.50;99.90;;;4.28;100.00;96035.06;10449699;28;2000;-77
2021/11/14 21:16:22;;;;;;;;;;;5.50;99.90;;;4.30;100.00;96043.59;10448204;28;1908;-76
2021/11/14 21:21:25;;;;;;;;;;;5.50;99.90;;;4.30;100.00;96048.94;10453202;28;1944;-76
2021/11/14 21:26:28;;;;;;;;;;;5.50;99.90;;;4.32;100.00;96064.66;10449559;28;1896;-76
2021/11/14 21:31:31;;;;;;;;;;;5.50;99.90;;;4.21;100.00;96063.59;10451166;28;1918;-75
2021/11/14 21:41:55;;;;;;;;;;;5.40;99.90;;;4.27;100.00;96059.22;10440281;28;1898;-76
2021/11/14 21:46:58;;;;;;;;;;;5.40;99.90;;;4.33;100.00;96061.81;10445859;28;2007;-76
2021/11/14 21:52:01;;;;;;;;;;;5.40;99.90;;;4.31;100.00;96052.41;10448660;28;1928;-74
2021/11/14 21:57:04;;;;;;;;;;;5.50;99.90;;;4.22;100.00;96046.59;10443778;28;1936;-74
2021/11/14 22:02:06;;;;;;;;;;;5.40;99.90;;;4.20;100.00;96046.03;10451689;28;1897;-74
2021/11/14 22:07:10;;;;;;;;;;;5.30;99.90;;;4.06;100.00;96058.69;10447629;28;1948;-74
2021/11/14 22:12:12;;;;;;;;;;;5.30;99.90;;;4.10;100.00;96063.56;10447504;28;1956;-74
2021/11/14 22:17:17;;;;;;;;;;;5.20;99.90;;;4.05;100.00;96064.22;10445164;28;1955;-74
2021/11/14 22:22:20;;;;;;;;;;;5.20;99.90;;;4.08;100.00;96058.47;10443771;28;1917;-74
2021/11/14 22:27:23;;;;;;;;;;;5.20;99.90;;;4.14;100.00;96068.22;10444461;28;1925;-74
2021/11/14 22:32:26;;;;;;;;;;;5.30;99.90;;;4.10;100.00;96053.72;10454018;28;1981;-76
2021/11/14 22:37:29;;;;;;;;;;;5.30;99.90;;;3.89;100.00;96056.88;10448497;28;1775;-74
2021/11/14 22:42:32;;;;;;;;;;;5.20;99.90;;;3.86;100.00;96057.31;10455161;28;1900;-74
2021/11/14 22:47:35;;;;;;;;;;;5.10;99.90;;;3.91;100.00;96065.44;10452481;28;1944;-74
2021/11/14 22:52:37;;;;;;;;;;;5.10;99.90;;;3.85;100.00;96066.34;10456096;28;1976;-74
2021/11/14 22:57:40;;;;;;;;;;;5.20;99.90;;;3.85;100.00;96055.69;10464130;28;1860;-75
2021/11/14 23:02:43;;;;;;;;;;;5.00;99.90;;;3.80;100.00;96065.16;10453637;28;1770;-73
2021/11/14 23:07:46;;;;;;;;;;;5.00;99.90;;;3.72;100.00;96068.13;10455752;28;1712;-73
2021/11/14 23:12:49;;;;;;;;;;;5.00;99.90;;;3.72;100.00;96073.44;10458786;28;1985;-74
2021/11/14 23:17:52;;;;;;;;;;;4.90;99.90;;;3.78;100.00;96071.75;10454280;28;1917;-73
2021/11/14 23:22:55;;;;;;;;;;;4.90;99.90;;;3.78;100.00;96083.19;10457591;28;1873;-75
2021/11/14 23:27:58;;;;;;;;;;;4.90;99.90;;;3.65;100.00;96077.22;10450776;28;2054;-73
2021/11/14 23:33:01;;;;;;;;;;;4.90;99.90;;;3.65;100.00;96077.22;10458752;28;1922;-74